Time;durP1;ratioP1;P1;durP2;ratioP2;P2;SDS_P1;SDS_P2;PMS_P1;PMS_P2;Temp;Humidity;BMP_temperature;BMP_pressure;BME280_temperature;BME280_humidity;BME280_pressure;Samples;Min_cycle;Max_cycle;Signal;HPM_P1;HPM_P2
2021/07/11 00:01:08;;;;;;;12.35;10.63;;;17.40;89.30;;;;;;5091973;28;20467;-82
2021/07/11 00:03:33;;;;;;;13.52;11.55;;;17.30;89.30;;;;;;5105002;28;20027;-79
2021/07/11 00:05:59;;;;;;;12.52;11.15;;;17.30;89.30;;;;;;5106406;28;20386;-79
2021/07/11 00:08:24;;;;;;;12.43;11.23;;;17.30;89.40;;;;;;5088130;28;20472;-80
2021/07/11 00:10:50;;;;;;;14.30;11.65;;;17.30;89.40;;;;;;5079458;28;20408;-80
2021/07/11 00:13:16;;;;;;;13.48;12.18;;;17.20;89.50;;;;;;5110383;28;20065;-81
2021/07/11 00:15:42;;;;;;;15.13;12.85;;;17.20;89.60;;;;;;5102246;28;20035;-80
2021/07/11 00:18:08;;;;;;;14.10;12.70;;;17.20;89.70;;;;;;5085534;28;20739;-82
2021/07/11 00:20:34;;;;;;;13.88;12.52;;;17.20;89.60;;;;;;5092328;28;20039;-78
2021/07/11 00:22:59;;;;;;;15.48;13.98;;;17.20;89.60;;;;;;5096913;28;20023;-80
2021/07/11 00:25:26;;;;;;;15.35;13.75;;;17.20;89.60;;;;;;5071980;28;20074;-80
2021/07/11 00:27:53;;;;;;;15.50;13.45;;;17.30;89.50;;;;;;5104917;28;20036;-80
2021/07/11 00:30:18;;;;;;;14.48;12.73;;;17.30;89.40;;;;;;5088149;28;20025;-80
2021/07/11 00:32:45;;;;;;;14.30;12.80;;;17.30;89.30;;;;;;5106594;28;20024;-80
2021/07/11 00:35:11;;;;;;;15.85;13.82;;;17.30;89.70;;;;;;5108969;28;20093;-82
2021/07/11 00:37:37;;;;;;;15.13;13.57;;;17.20;89.30;;;;;;5105795;28;20091;-79
2021/07/11 00:40:05;;;;;;;13.68;12.38;;;17.30;89.30;;;;;;5056482;28;20488;-79
2021/07/11 00:42:31;;;;;;;18.33;13.98;;;17.20;89.20;;;;;;5108791;28;20030;-80
2021/07/11 00:44:56;;;;;;;15.38;13.63;;;17.20;89.30;;;;;;5108981;28;20019;-80
2021/07/11 00:47:22;;;;;;;14.60;13.00;;;17.20;89.30;;;;;;5093012;28;20047;-79
2021/07/11 00:49:48;;;;;;;15.13;13.52;;;17.20;89.30;;;;;;5072976;28;20487;-80
2021/07/11 00:52:14;;;;;;;15.10;13.55;;;17.20;89.30;;;;;;5095003;28;20035;-84
2021/07/11 00:54:40;;;;;;;16.30;13.60;;;17.20;89.40;;;;;;5083206;28;20035;-80
2021/07/11 00:57:06;;;;;;;14.50;13.05;;;17.20;89.80;;;;;;5108264;28;20032;-80
2021/07/11 00:59:33;;;;;;;14.55;13.13;;;17.20;89.30;;;;;;5090860;28;20067;-80
2021/07/11 01:02:13;;;;;;;13.82;12.40;;;17.20;89.20;;;;;;5102063;28;20028;-80
2021/07/11 01:04:51;;;;;;;15.32;13.38;;;17.20;89.20;;;;;;5107347;28;20059;-80
2021/07/11 01:07:27;;;;;;;15.88;13.73;;;17.20;89.20;;;;;;5103633;28;20139;-80
2021/07/11 01:09:57;;;;;;;15.02;13.52;;;17.10;89.30;;;;;;5106518;28;20036;-80
2021/07/11 01:12:30;;;;;;;16.00;14.40;;;17.10;89.40;;;;;;5103098;28;20512;-80
2021/07/11 01:14:56;;;;;;;;;;;17.10;89.50;;;;;;5108307;28;20027;-81
2021/07/11 01:17:25;;;;;;;15.65;14.02;;;17.10;89.80;;;;;;5104996;28;20008;-81
2021/07/11 01:19:59;;;;;;;17.13;14.45;;;17.10;89.40;;;;;;5106165;28;20027;-80
2021/07/11 01:22:34;;;;;;;17.98;14.50;;;17.10;89.40;;;;;;5106221;28;20106;-80
2021/07/11 01:25:01;;;;;;;16.10;14.40;;;17.10;89.40;;;;;;5092675;28;20067;-81
2021/07/11 01:27:30;;;;;;;16.40;14.68;;;17.20;89.40;;;;;;5091566;28;20032;-81
2021/07/11 01:29:57;;;;;;;16.13;14.43;;;17.10;89.40;;;;;;5092307;28;20031;-82
2021/07/11 01:32:25;;;;;;;16.98;14.00;;;17.10;89.30;;;;;;5094431;28;20028;-81
2021/07/11 01:34:51;;;;;;;18.92;14.98;;;17.10;89.50;;;;;;5094814;28;20028;-82
2021/07/11 01:37:18;;;;;;;15.93;14.25;;;17.20;89.60;;;;;;5094849;28;20059;-81
2021/07/11 01:39:45;;;;;;;18.95;14.27;;;17.20;89.40;;;;;;5095304;28;20099;-82
2021/07/11 01:42:12;;;;;;;15.70;13.63;;;17.20;89.40;;;;;;5094069;28;20448;-81
2021/07/11 01:44:39;;;;;;;15.43;13.80;;;17.20;89.40;;;;;;5092535;28;20113;-82
2021/07/11 01:47:06;;;;;;;16.20;14.50;;;17.20;89.30;;;;;;5092269;28;20047;-82
2021/07/11 01:49:34;;;;;;;16.92;15.13;;;17.20;89.30;;;;;;5093254;28;20036;-82
2021/07/11 01:52:00;;;;;;;15.27;13.73;;;17.20;89.30;;;;;;5097444;28;20124;-81
2021/07/11 01:54:28;;;;;;;15.98;14.25;;;17.10;89.30;;;;;;5093511;28;20028;-80
2021/07/11 01:56:54;;;;;;;15.68;14.00;;;17.20;89.30;;;;;;5089411;28;20066;-80
2021/07/11 01:59:20;;;;;;;15.75;13.35;;;17.10;89.40;;;;;;5061361;28;20119;-81
2021/07/11 02:01:45;;;;;;;15.07;13.57;;;17.20;89.40;;;;;;5061252;28;20020;-81
2021/07/11 02:04:11;;;;;;;15.60;13.98;;;17.20;89.30;;;;;;5078326;28;20028;-80
2021/07/11 02:06:38;;;;;;;15.35;13.73;;;17.20;89.70;;;;;;5095039;28;20032;-81
2021/07/11 02:09:07;;;;;;;15.45;13.95;;;17.20;89.30;;;;;;5095168;28;20028;-80
2021/07/11 02:11:36;;;;;;;14.40;12.98;;;17.20;89.40;;;;;;5096508;28;20035;-81
2021/07/11 02:14:07;;;;;;;15.20;13.48;;;17.20;89.40;;;;;;5094825;28;20032;-80
2021/07/11 02:16:43;;;;;;;16.02;14.43;;;17.10;89.50;;;;;;5095901;28;20177;-81
2021/07/11 02:19:09;;;;;;;15.13;13.60;;;17.20;89.50;;;;;;5094808;28;20024;-81
2021/07/11 02:21:39;;;;;;;14.50;13.02;;;17.20;89.40;;;;;;5095738;28;20024;-80
2021/07/11 02:24:05;;;;;;;14.68;13.20;;;17.20;89.50;;;;;;5095930;28;20086;-80
2021/07/11 02:26:32;;;;;;;15.68;13.88;;;17.20;89.60;;;;;;5094693;28;20059;-79
2021/07/11 02:28:58;;;;;;;16.13;14.25;;;17.20;89.50;;;;;;5094773;28;20101;-80
2021/07/11 02:31:29;;;;;;;16.20;14.50;;;17.10;89.50;;;;;;5061322;28;20039;-80
2021/07/11 02:33:55;;;;;;;16.17;12.98;;;17.10;89.70;;;;;;5078423;28;20460;-80
2021/07/11 02:36:28;;;;;;;16.50;14.75;;;17.10;89.70;;;;;;5094497;28;20326;-81
2021/07/11 02:39:04;;;;;;;16.17;14.43;;;17.10;89.70;;;;;;5094387;28;20069;-79
2021/07/11 02:41:32;;;;;;;15.20;13.60;;;17.10;89.80;;;;;;5094411;28;20476;-80
2021/07/11 02:44:00;;;;;;;16.88;14.80;;;17.10;89.60;;;;;;5095603;28;20040;-79
2021/07/11 02:46:30;;;;;;;18.58;13.80;;;17.20;89.60;;;;;;5094394;28;20111;-80
2021/07/11 02:48:57;;;;;;;19.20;15.02;;;17.10;89.50;;;;;;5094301;28;20028;-80
2021/07/11 02:51:26;;;;;;;17.67;15.18;;;17.10;89.40;;;;;;5094242;28;20056;-79
2021/07/11 02:53:54;;;;;;;16.25;14.52;;;17.20;89.50;;;;;;5094169;28;20024;-80
2021/07/11 02:56:21;;;;;;;17.50;15.63;;;17.20;89.50;;;;;;5093675;28;20082;-80
2021/07/11 02:58:54;;;;;;;16.92;14.60;;;17.10;89.40;;;;;;5094197;28;20135;-80
2021/07/11 03:01:24;;;;;;;18.85;14.52;;;17.10;89.40;;;;;;5095002;28;20118;-80
2021/07/11 03:03:51;;;;;;;16.92;15.23;;;17.10;89.50;;;;;;5093825;28;20023;-81
2021/07/11 03:06:17;;;;;;;17.27;15.25;;;17.00;89.40;;;;;;5093507;28;20040;-80
2021/07/11 03:08:43;;;;;;;16.77;15.13;;;17.10;89.50;;;;;;5095207;28;20107;-80
2021/07/11 03:11:10;;;;;;;16.90;14.77;;;17.00;89.50;;;;;;5095044;28;20431;-81
2021/07/11 03:13:36;;;;;;;16.77;14.60;;;17.00;89.40;;;;;;5094387;28;20020;-80
2021/07/11 03:16:04;;;;;;;17.50;15.55;;;16.90;89.50;;;;;;5062650;28;20526;-78
2021/07/11 03:18:34;;;;;;;16.70;13.70;;;17.00;89.70;;;;;;5100001;28;20082;-79
2021/07/11 03:21:00;;;;;;;16.00;13.82;;;17.00;89.70;;;;;;5102756;28;20027;-79
2021/07/11 03:23:27;;;;;;;18.48;14.98;;;17.00;89.70;;;;;;5107706;28;20071;-78
2021/07/11 03:25:53;;;;;;;15.73;14.00;;;17.00;89.70;;;;;;5109261;28;20040;-79
2021/07/11 03:28:20;;;;;;;16.83;14.95;;;17.00;89.70;;;;;;5092728;28;20024;-79
2021/07/11 03:30:49;;;;;;;16.92;14.77;;;17.00;89.70;;;;;;5109519;28;20024;-80
2021/07/11 03:33:16;;;;;;;17.80;14.65;;;16.90;89.70;;;;;;5108563;28;20034;-78
2021/07/11 03:36:02;;;;;;;17.88;15.93;;;16.90;89.80;;;;;;5100789;28;20036;-80
2021/07/11 03:38:38;;;;;;;18.73;15.52;;;16.90;89.80;;;;;;5093649;28;20432;-79
2021/07/11 03:41:05;;;;;;;20.13;16.73;;;16.90;89.80;;;;;;5093067;28;20035;-79
2021/07/11 03:43:36;;;;;;;17.85;15.95;;;16.90;89.80;;;;;;5076147;28;20034;-79
2021/07/11 03:46:06;;;;;;;16.80;15.00;;;16.90;89.90;;;;;;5093486;28;20428;-79
2021/07/11 03:48:46;;;;;;;20.52;17.10;;;17.00;89.90;;;;;;5096311;28;20028;-80
2021/07/11 03:51:13;;;;;;;19.27;15.57;;;17.00;89.90;;;;;;5094290;28;20021;-79
2021/07/11 03:53:40;;;;;;;25.67;18.77;;;17.00;89.80;;;;;;5076453;28;20047;-80
2021/07/11 03:56:07;;;;;;;24.50;20.48;;;17.10;89.60;;;;;;5093406;28;20062;-79
2021/07/11 03:58:43;;;;;;;21.73;17.45;;;17.20;89.40;;;;;;5092229;28;20030;-80
2021/07/11 04:01:09;;;;;;;22.77;19.05;;;17.20;89.30;;;;;;5092644;28;20513;-79
2021/07/11 04:03:38;;;;;;;24.95;19.48;;;17.20;89.30;;;;;;5095142;28;20036;-80
2021/07/11 04:06:05;;;;;;;30.10;23.55;;;17.20;89.30;;;;;;5092448;28;20035;-80
2021/07/11 04:08:33;;;;;;;30.52;23.75;;;17.20;89.30;;;;;;5076408;28;20384;-79
2021/07/11 04:11:00;;;;;;;30.60;23.13;;;17.30;89.40;;;;;;5093954;28;20038;-80
2021/07/11 04:13:26;;;;;;;27.77;22.15;;;17.30;89.30;;;;;;5092943;28;20024;-79
2021/07/11 04:15:57;;;;;;;31.15;23.88;;;17.30;89.30;;;;;;5075326;28;20036;-80
2021/07/11 04:18:24;;;;;;;33.30;26.30;;;17.40;89.30;;;;;;5092519;28;20038;-79
2021/07/11 04:20:54;;;;;;;40.13;28.98;;;17.40;89.20;;;;;;5075480;28;20031;-79
2021/07/11 04:23:23;;;;;;;39.40;29.35;;;17.40;89.10;;;;;;5093452;28;20024;-81
2021/07/11 04:25:50;;;;;;;39.97;29.33;;;17.40;89.20;;;;;;5094402;28;20024;-81
2021/07/11 04:28:16;;;;;;;46.65;30.88;;;17.40;89.30;;;;;;5094555;28;20034;-80
2021/07/11 04:30:42;;;;;;;47.72;31.75;;;17.40;89.40;;;;;;5094527;28;20028;-79
2021/07/11 04:33:11;;;;;;;43.40;30.73;;;17.40;89.40;;;;;;5099910;28;20024;-78
2021/07/11 04:35:37;;;;;;;41.95;30.35;;;17.50;89.30;;;;;;5099777;28;20039;-79
2021/07/11 04:38:03;;;;;;;46.65;32.00;;;17.50;89.30;;;;;;5101456;28;20020;-80
2021/07/11 04:40:28;;;;;;;52.95;34.40;;;17.60;89.20;;;;;;5064411;28;20063;-80
2021/07/11 04:42:54;;;;;;;50.53;34.15;;;17.60;89.10;;;;;;5094060;28;20024;-78
2021/07/11 04:45:20;;;;;;;51.63;34.88;;;17.70;89.00;;;;;;5079262;28;20119;-79
2021/07/11 04:47:45;;;;;;;49.42;33.92;;;17.70;88.90;;;;;;5096649;28;20067;-79
2021/07/11 04:50:12;;;;;;;57.70;37.80;;;17.80;88.80;;;;;;5094216;28;20051;-79
2021/07/11 04:52:39;;;;;;;57.35;38.08;;;17.80;88.70;;;;;;5093960;28;20082;-79
2021/07/11 04:55:07;;;;;;;61.20;38.92;;;17.80;88.60;;;;;;5092940;28;20182;-79
2021/07/11 04:57:33;;;;;;;56.13;34.83;;;17.80;88.70;;;;;;5093179;28;20028;-79
2021/07/11 04:59:59;;;;;;;58.33;37.80;;;17.80;88.70;;;;;;5059144;28;20035;-80
2021/07/11 05:02:24;;;;;;;63.75;41.28;;;17.90;88.70;;;;;;5075413;28;20404;-80
2021/07/11 05:04:52;;;;;;;61.85;39.28;;;17.80;88.60;;;;;;5092013;28;20052;-81
2021/07/11 05:07:19;;;;;;;60.78;38.95;;;17.90;88.80;;;;;;5075431;28;20157;-79
2021/07/11 05:09:44;;;;;;;67.65;40.58;;;17.90;88.80;;;;;;5093861;28;20032;-80
2021/07/11 05:12:10;;;;;;;63.03;40.17;;;17.90;88.70;;;;;;5092249;28;20085;-81
2021/07/11 05:14:36;;;;;;;63.30;39.65;;;18.00;88.70;;;;;;5093020;28;20493;-80
2021/07/11 05:17:01;;;;;;;63.05;40.15;;;18.00;88.60;;;;;;5058622;28;20059;-80
2021/07/11 05:19:27;;;;;;;67.30;40.95;;;18.10;88.50;;;;;;5091693;28;20028;-81
2021/07/11 05:21:53;;;;;;;62.38;39.80;;;18.10;88.40;;;;;;5075137;28;20341;-81
2021/07/11 05:24:18;;;;;;;63.40;40.67;;;18.20;88.30;;;;;;5091238;28;20028;-80
2021/07/11 05:26:44;;;;;;;68.93;40.92;;;18.20;88.20;;;;;;5091566;28;20044;-81
2021/07/11 05:29:10;;;;;;;64.20;40.95;;;18.20;88.10;;;;;;5074748;28;20415;-80
2021/07/11 05:31:35;;;;;;;61.60;40.10;;;18.30;88.10;;;;;;5093974;28;20024;-80
2021/07/11 05:34:01;;;;;;;71.65;44.92;;;18.30;88.00;;;;;;5095672;28;20039;-81
2021/07/11 05:36:27;;;;;;;63.78;40.05;;;18.30;88.00;;;;;;5078968;28;20032;-79
2021/07/11 05:38:52;;;;;;;65.10;40.65;;;18.30;88.00;;;;;;5078638;28;20051;-79
2021/07/11 05:41:18;;;;;;;65.60;41.97;;;18.30;88.00;;;;;;5096115;28;20081;-80
2021/07/11 05:43:44;;;;;;;64.82;43.45;;;18.30;87.80;;;;;;5079149;28;20390;-80
2021/07/11 05:46:09;;;;;;;66.15;40.80;;;18.40;87.80;;;;;;5078222;28;20036;-81
2021/07/11 05:48:35;;;;;;;68.55;43.50;;;18.40;87.90;;;;;;5063102;28;20439;-80
2021/07/11 05:51:01;;;;;;;67.38;42.25;;;18.40;87.90;;;;;;5096405;28;20028;-81
2021/07/11 05:53:26;;;;;;;69.32;45.42;;;18.40;87.70;;;;;;5078423;28;20031;-81
2021/07/11 05:55:52;;;;;;;69.00;45.63;;;18.50;87.60;;;;;;5094991;28;20391;-80
2021/07/11 05:58:17;;;;;;;60.08;41.35;;;18.50;87.50;;;;;;5077856;28;20030;-81
2021/07/11 06:00:43;;;;;;;65.43;43.85;;;18.60;87.50;;;;;;5095958;28;20039;-81
2021/07/11 06:03:10;;;;;;;78.78;49.60;;;18.60;87.40;;;;;;5078807;28;20513;-81
2021/07/11 06:05:37;;;;;;;76.30;48.60;;;18.60;87.40;;;;;;5096418;28;20107;-81
2021/07/11 06:08:06;;;;;;;72.53;46.63;;;18.60;87.40;;;;;;5094750;28;20056;-81
2021/07/11 06:10:32;;;;;;;71.40;45.70;;;18.60;87.50;;;;;;5078535;28;20459;-81
2021/07/11 06:12:58;;;;;;;75.45;49.17;;;18.60;87.50;;;;;;5094670;28;20016;-80
2021/07/11 06:15:24;;;;;;;71.57;45.78;;;18.70;87.30;;;;;;5096467;28;20024;-81
2021/07/11 06:17:49;;;;;;;72.47;45.53;;;18.90;87.10;;;;;;5078301;28;20047;-82
2021/07/11 06:20:15;;;;;;;56.28;37.78;;;19.00;86.80;;;;;;5094622;28;20478;-81
2021/07/11 06:22:41;;;;;;;59.35;40.78;;;19.10;86.40;;;;;;5077913;28;20096;-81
2021/07/11 06:25:08;;;;;;;54.13;38.88;;;19.40;85.90;;;;;;5094555;28;20069;-83
2021/07/11 06:27:38;;;;;;;55.05;37.70;;;19.60;85.10;;;;;;5094677;28;20383;-81
2021/07/11 06:30:09;;;;;;;58.25;41.28;;;19.80;84.50;;;;;;5077661;28;20024;-82
2021/07/11 06:32:36;;;;;;;58.85;38.88;;;20.00;84.10;;;;;;5094881;28;20047;-82
2021/07/11 06:35:04;;;;;;;59.80;40.70;;;20.00;83.70;;;;;;5094175;28;20035;-81
2021/07/11 06:37:29;;;;;;;59.88;41.65;;;20.00;83.60;;;;;;5078131;28;20074;-83
2021/07/11 06:39:55;;;;;;;71.40;47.50;;;19.90;83.70;;;;;;5061069;28;20043;-82
2021/07/11 06:42:21;;;;;;;81.82;50.22;;;19.70;83.80;;;;;;5076755;28;20028;-82
2021/07/11 06:44:46;;;;;;;74.70;48.65;;;19.60;84.00;;;;;;5094710;28;20032;-83
2021/07/11 06:47:12;;;;;;;83.53;54.08;;;19.40;84.30;;;;;;5093962;28;20060;-81
2021/07/11 06:49:38;;;;;;;84.22;53.63;;;19.30;84.40;;;;;;5094412;28;20122;-81
2021/07/11 06:52:04;;;;;;;82.28;52.58;;;19.10;84.80;;;;;;5094277;28;20491;-81
2021/07/11 06:54:30;;;;;;;78.90;50.25;;;19.00;85.10;;;;;;5094274;28;20088;-83
2021/07/11 06:56:56;;;;;;;78.82;51.08;;;19.00;85.30;;;;;;5077012;28;20052;-82
2021/07/11 06:59:21;;;;;;;82.65;51.50;;;19.10;85.30;;;;;;5094729;28;20030;-82
2021/07/11 07:01:47;;;;;;;78.57;52.38;;;19.20;85.20;;;;;;5060925;28;20114;-84
2021/07/11 07:04:13;;;;;;;80.03;51.58;;;19.20;84.90;;;;;;5095635;28;20016;-83
2021/07/11 07:06:39;;;;;;;76.90;51.15;;;19.30;84.70;;;;;;5094723;28;20036;-84
2021/07/11 07:09:04;;;;;;;77.18;51.95;;;19.30;84.50;;;;;;5077503;28;20100;-81
2021/07/11 07:11:30;;;;;;;76.72;50.22;;;19.30;84.20;;;;;;5094643;28;20032;-81
2021/07/11 07:13:56;;;;;;;74.70;50.78;;;19.30;84.10;;;;;;5078097;28;20115;-83
2021/07/11 07:16:23;;;;;;;72.97;50.78;;;19.30;84.10;;;;;;5077460;28;20135;-83
2021/07/11 07:18:48;;;;;;;68.40;49.58;;;19.30;84.20;;;;;;5095196;28;20024;-82
2021/07/11 07:21:14;;;;;;;63.47;45.00;;;19.30;84.20;;;;;;5060691;28;20036;-84
2021/07/11 07:23:40;;;;;;;57.67;44.55;;;19.60;84.20;;;;;;5078644;28;20037;-84
2021/07/11 07:26:06;;;;;;;59.28;46.72;;;19.80;83.40;;;;;;5097121;28;20032;-85
2021/07/11 07:28:32;;;;;;;52.75;42.67;;;20.10;82.60;;;;;;5096638;28;20094;-83
2021/07/11 07:30:58;;;;;;;49.05;40.67;;;20.40;82.10;;;;;;5101049;28;20456;-85
2021/07/11 07:33:23;;;;;;;48.10;37.28;;;20.60;81.40;;;;;;5085314;28;20055;-85
2021/07/11 07:35:49;;;;;;;41.10;36.10;;;20.70;80.80;;;;;;5097394;28;20106;-84
2021/07/11 07:38:15;;;;;;;41.53;35.67;;;20.70;80.40;;;;;;5078541;28;20039;-85
2021/07/11 07:40:41;;;;;;;42.30;35.60;;;20.80;80.10;;;;;;5081045;28;20495;-85
2021/07/11 07:43:07;;;;;;;43.03;36.70;;;20.80;79.90;;;;;;5097190;28;20452;-85
2021/07/11 07:45:33;;;;;;;35.92;30.73;;;21.00;79.30;;;;;;5078350;28;20119;-85
2021/07/11 07:47:59;;;;;;;32.75;28.58;;;21.30;78.60;;;;;;5103325;28;20517;-85
2021/07/11 07:50:26;;;;;;;32.75;29.20;;;21.50;78.20;;;;;;5095914;28;20443;-85
2021/07/11 07:52:51;;;;;;;27.00;23.27;;;22.10;77.20;;;;;;5086289;28;20028;-85
2021/07/11 07:55:18;;;;;;;24.58;21.98;;;22.90;74.90;;;;;;5098857;28;20047;-85
2021/07/11 07:57:44;;;;;;;20.90;18.80;;;23.80;72.80;;;;;;5096323;28;20059;-86
2021/07/11 08:00:12;;;;;;;17.70;15.80;;;24.70;70.10;;;;;;5085518;28;20032;-85
2021/07/11 08:02:38;;;;;;;17.33;15.20;;;25.40;68.10;;;;;;5098904;28;20087;-86
2021/07/11 08:05:05;;;;;;;15.93;14.32;;;26.30;66.30;;;;;;5114390;28;20038;-85
2021/07/11 08:07:31;;;;;;;13.77;12.35;;;27.10;64.40;;;;;;5095723;28;20032;-84
2021/07/11 08:09:56;;;;;;;12.13;10.98;;;27.50;63.00;;;;;;5086992;28;20035;-84
2021/07/11 08:12:22;;;;;;;10.82;9.70;;;28.00;60.80;;;;;;5097010;28;20467;-85
2021/07/11 08:14:48;;;;;;;10.00;9.20;;;28.20;58.90;;;;;;5094812;28;20042;-84
2021/07/11 08:17:14;;;;;;;10.35;9.45;;;28.60;57.50;;;;;;5093685;28;20039;-86
2021/07/11 08:19:39;;;;;;;9.25;8.40;;;28.80;55.90;;;;;;5077466;28;20028;-87
2021/07/11 08:22:05;;;;;;;9.90;8.70;;;29.00;55.60;;;;;;5097082;28;20050;-85
2021/07/11 08:24:31;;;;;;;8.43;7.65;;;29.30;54.90;;;;;;5080055;28;20024;-84
2021/07/11 08:26:57;;;;;;;7.70;7.07;;;29.70;53.70;;;;;;5094501;28;20032;-82
2021/07/11 08:29:22;;;;;;;6.97;6.28;;;29.90;52.30;;;;;;5060022;28;20028;-81
2021/07/11 08:31:48;;;;;;;6.65;6.05;;;30.00;52.00;;;;;;5096217;28;20036;-83
2021/07/11 08:34:14;;;;;;;7.03;6.43;;;30.40;51.60;;;;;;5095054;28;20443;-83
2021/07/11 08:36:40;;;;;;;7.50;6.90;;;30.70;50.40;;;;;;5077226;28;20036;-85
2021/07/11 08:39:05;;;;;;;7.18;6.57;;;30.60;49.60;;;;;;5100262;28;20024;-83
2021/07/11 08:41:32;;;;;;;7.15;5.80;;;30.40;49.30;;;;;;5098561;28;20031;-82
2021/07/11 08:43:58;;;;;;;9.02;6.20;;;30.50;49.20;;;;;;5095021;28;20165;-84
2021/07/11 08:46:24;;;;;;;5.65;5.10;;;30.80;48.90;;;;;;5094016;28;20046;-80
2021/07/11 08:48:51;;;;;;;5.75;5.25;;;31.20;47.90;;;;;;5093752;28;20376;-82
2021/07/11 08:51:17;;;;;;;5.97;5.32;;;31.30;47.30;;;;;;5093418;28;20020;-83
2021/07/11 08:53:46;;;;;;;5.07;4.70;;;31.50;47.60;;;;;;5092349;28;20028;-83
2021/07/11 08:56:21;;;;;;;7.35;6.63;;;31.60;46.50;;;;;;5094299;28;20056;-83
2021/07/11 08:58:51;;;;;;;5.38;4.88;;;31.20;45.20;;;;;;5093048;28;20031;-82
2021/07/11 09:01:19;;;;;;;5.95;5.50;;;30.80;47.50;;;;;;5093462;28;20028;-84
2021/07/11 09:03:45;;;;;;;10.77;6.13;;;30.70;47.60;;;;;;5092773;28;20020;-81
2021/07/11 09:06:10;;;;;;;6.10;5.50;;;30.70;47.50;;;;;;5096562;28;20060;-82
2021/07/11 09:08:42;;;;;;;5.72;5.10;;;30.90;47.50;;;;;;5096864;28;20063;-83
2021/07/11 09:11:13;;;;;;;6.70;6.10;;;30.90;47.30;;;;;;5098472;28;20032;-81
2021/07/11 09:13:39;;;;;;;6.03;5.43;;;30.70;46.80;;;;;;5097113;28;20111;-82
2021/07/11 09:16:04;;;;;;;5.20;4.80;;;30.60;47.90;;;;;;5081657;28;20062;-82
2021/07/11 09:18:34;;;;;;;5.38;4.88;;;30.60;48.10;;;;;;5101690;28;20034;-82
2021/07/11 09:21:03;;;;;;;5.40;5.00;;;30.90;47.80;;;;;;5095600;28;20111;-80
2021/07/11 09:23:31;;;;;;;3.88;3.58;;;31.20;47.10;;;;;;5099267;28;20027;-83
2021/07/11 09:26:00;;;;;;;4.35;4.00;;;31.40;47.00;;;;;;5096884;28;20016;-80
2021/07/11 09:28:27;;;;;;;5.43;4.93;;;31.60;46.10;;;;;;5100710;28;20024;-80
2021/07/11 09:31:04;;;;;;;5.70;5.20;;;31.80;45.90;;;;;;5102494;28;20112;-80
2021/07/11 09:33:30;;;;;;;3.92;3.55;;;31.70;44.90;;;;;;5105891;28;20114;-82
2021/07/11 09:36:14;;;;;;;3.25;2.92;;;31.60;45.20;;;;;;5103751;28;20056;-81
2021/07/11 09:38:40;;;;;;;3.35;3.00;;;32.00;45.50;;;;;;5096927;28;20016;-80
2021/07/11 09:41:19;;;;;;;2.80;2.60;;;32.60;44.50;;;;;;5097699;28;20111;-79
2021/07/11 09:43:45;;;;;;;4.03;2.83;;;32.80;44.20;;;;;;5097320;28;20027;-79
2021/07/11 09:46:16;;;;;;;2.83;2.63;;;32.90;43.80;;;;;;5096466;28;20028;-79
2021/07/11 09:48:42;;;;;;;3.50;3.20;;;32.90;43.70;;;;;;5095887;28;20199;-78
2021/07/11 09:51:23;;;;;;;2.63;2.40;;;33.30;43.70;;;;;;5095447;28;20028;-80
2021/07/11 09:53:50;;;;;;;3.35;2.65;;;33.50;42.70;;;;;;5095175;28;20020;-77
2021/07/11 09:56:40;;;;;;;2.97;2.50;;;33.00;42.30;;;;;;5095580;28;20556;-77
2021/07/11 09:59:08;;;;;;;2.47;2.00;;;32.50;43.50;;;;;;5095514;28;20024;-78
2021/07/11 10:01:38;;;;;;;3.25;2.95;;;32.30;43.40;;;;;;5095878;28;20463;-81
2021/07/11 10:04:06;;;;;;;2.88;2.63;;;32.50;43.90;;;;;;5095788;28;20012;-78
2021/07/11 10:06:33;;;;;;;2.70;2.05;;;32.80;43.30;;;;;;5096129;28;20053;-79
2021/07/11 10:09:00;;;;;;;2.30;2.10;;;32.90;42.90;;;;;;5094729;28;20024;-76
2021/07/11 10:11:26;;;;;;;4.05;3.20;;;33.10;42.40;;;;;;5094249;28;20047;-78
2021/07/11 10:13:52;;;;;;;2.67;2.10;;;32.70;41.50;;;;;;5094499;28;20020;-79
2021/07/11 10:16:19;;;;;;;2.20;1.77;;;32.40;42.40;;;;;;5060339;28;20034;-79
2021/07/11 10:18:47;;;;;;;3.83;2.08;;;32.50;42.50;;;;;;5094723;28;20099;-76
2021/07/11 10:21:13;;;;;;;2.10;1.63;;;32.60;43.00;;;;;;5094790;28;20426;-77
2021/07/11 10:23:41;;;;;;;1.67;1.45;;;32.90;42.70;;;;;;5094955;28;20378;-80
2021/07/11 10:26:16;;;;;;;3.30;1.73;;;32.80;42.20;;;;;;5095566;28;20038;-80
2021/07/11 10:28:44;;;;;;;1.80;1.40;;;32.90;41.30;;;;;;5077375;28;20036;-78
2021/07/11 10:31:22;;;;;;;1.70;1.13;;;32.70;41.40;;;;;;5095935;28;20024;-78
2021/07/11 10:33:49;;;;;;;5.22;1.20;;;32.40;42.20;;;;;;5094578;28;20020;-78
2021/07/11 10:36:16;;;;;;;1.92;1.17;;;32.60;42.30;;;;;;5094914;28;20047;-78
2021/07/11 10:38:53;;;;;;;1.63;1.17;;;32.80;41.80;;;;;;5096198;28;20032;-79
2021/07/11 10:41:22;;;;;;;1.23;0.98;;;32.50;41.50;;;;;;5094346;28;20107;-77
2021/07/11 10:44:06;;;;;;;2.00;1.40;;;32.30;42.50;;;;;;5095997;28;20066;-77
2021/07/11 10:46:33;;;;;;;1.23;0.93;;;32.00;43.20;;;;;;5096764;28;20032;-77
2021/07/11 10:49:08;;;;;;;1.25;0.95;;;31.90;42.50;;;;;;5105807;28;20051;-76
2021/07/11 10:51:45;;;;;;;2.60;1.15;;;31.50;42.40;;;;;;5100473;28;20077;-75
2021/07/11 10:54:31;;;;;;;1.20;0.68;;;31.30;42.90;;;;;;5102980;28;20020;-76
2021/07/11 10:57:21;;;;;;;2.67;1.33;;;31.20;42.90;;;;;;5099605;28;20495;-75
2021/07/11 10:59:46;;;;;;;2.00;1.02;;;31.10;43.20;;;;;;5080734;28;20040;-76
2021/07/11 11:02:15;;;;;;;1.40;0.80;;;31.20;43.60;;;;;;5060555;28;20028;-75
2021/07/11 11:04:43;;;;;;;1.30;0.80;;;31.30;43.10;;;;;;5095328;28;20027;-75
2021/07/11 11:07:19;;;;;;;3.78;0.80;;;31.40;43.20;;;;;;5094462;28;20035;-79
2021/07/11 11:09:47;;;;;;;2.95;0.80;;;31.70;42.40;;;;;;5093837;28;20490;-81
2021/07/11 11:12:30;;;;;;;3.63;1.48;;;32.00;42.50;;;;;;5094237;28;20031;-77
2021/07/11 11:15:00;;;;;;;2.20;0.90;;;32.00;41.80;;;;;;5095838;28;20027;-76
2021/07/11 11:17:33;;;;;;;2.70;1.23;;;31.90;41.90;;;;;;5094754;28;20024;-76
2021/07/11 11:20:03;;;;;;;3.55;0.98;;;31.80;42.70;;;;;;5094273;28;20544;-77
2021/07/11 11:22:29;;;;;;;4.57;1.20;;;31.80;43.40;;;;;;5095100;28;20038;-75
2021/07/11 11:24:55;;;;;;;2.08;0.93;;;31.80;43.20;;;;;;5094771;28;20099;-77
2021/07/11 11:27:39;;;;;;;1.58;0.80;;;32.10;42.80;;;;;;5093108;28;20050;-76
2021/07/11 11:30:15;;;;;;;1.20;0.80;;;32.60;42.30;;;;;;5093320;28;20485;-77
2021/07/11 11:32:41;;;;;;;1.98;1.33;;;32.90;41.10;;;;;;5094955;28;20020;-77
2021/07/11 11:35:08;;;;;;;1.65;0.90;;;32.80;41.40;;;;;;5094296;28;20460;-77
2021/07/11 11:37:38;;;;;;;1.77;1.00;;;32.70;41.40;;;;;;5094469;28;20505;-78
2021/07/11 11:40:06;;;;;;;1.58;0.80;;;32.30;41.90;;;;;;5092678;28;20024;-76
2021/07/11 11:42:32;;;;;;;4.65;1.15;;;32.00;42.50;;;;;;5092896;28;20039;-78
2021/07/11 11:45:06;;;;;;;1.73;0.80;;;31.60;42.70;;;;;;5094171;28;20028;-78
2021/07/11 11:47:36;;;;;;;1.55;0.80;;;31.40;42.70;;;;;;5092868;28;20047;-77
2021/07/11 11:50:18;;;;;;;1.02;0.82;;;30.80;42.50;;;;;;5075882;28;20024;-77
2021/07/11 11:52:45;;;;;;;2.17;1.00;;;30.40;44.00;;;;;;5094475;28;20016;-76
2021/07/11 11:55:12;;;;;;;1.58;1.00;;;29.90;44.50;;;;;;5092162;28;20024;-77
2021/07/11 11:57:41;;;;;;;1.95;0.90;;;29.70;45.50;;;;;;5093125;28;20027;-78
2021/07/11 12:00:14;;;;;;;1.13;0.80;;;29.60;46.40;;;;;;5092591;28;20520;-78
2021/07/11 12:02:40;;;;;;;2.22;0.70;;;29.60;45.00;;;;;;5094435;28;20024;-77
2021/07/11 12:05:11;;;;;;;0.90;0.70;;;29.70;44.80;;;;;;5093624;28;20104;-78
2021/07/11 12:07:37;;;;;;;1.45;0.77;;;29.80;44.60;;;;;;5094322;28;20111;-78
2021/07/11 12:10:03;;;;;;;1.83;0.60;;;29.80;43.90;;;;;;5092336;28;20043;-78
2021/07/11 12:12:29;;;;;;;1.00;0.70;;;29.90;44.20;;;;;;5092505;28;20101;-78
2021/07/11 12:14:55;;;;;;;2.13;0.80;;;30.30;44.50;;;;;;5093682;28;20027;-81
2021/07/11 12:17:20;;;;;;;1.42;0.73;;;30.80;43.10;;;;;;5058607;28;20028;-77
2021/07/11 12:19:51;;;;;;;1.30;0.80;;;31.10;42.80;;;;;;5093611;28;20020;-77
2021/07/11 12:22:20;;;;;;;1.08;0.70;;;31.40;42.10;;;;;;5092903;28;20055;-76
2021/07/11 12:25:15;;;;;;;1.73;0.60;;;30.90;41.60;;;;;;5093131;28;20028;-76
2021/07/11 12:27:43;;;;;;;0.88;0.60;;;30.50;43.00;;;;;;5084734;28;20123;-77
2021/07/11 12:30:20;;;;;;;0.95;0.70;;;30.80;43.00;;;;;;5091652;28;20024;-77
2021/07/11 12:32:46;;;;;;;1.73;0.50;;;31.10;43.20;;;;;;5093773;28;20055;-77
2021/07/11 12:35:14;;;;;;;2.35;1.13;;;31.10;41.40;;;;;;5093556;28;20028;-78
2021/07/11 12:37:59;;;;;;;2.17;0.77;;;30.70;41.90;;;;;;5092344;28;20024;-77